sensor_id;sensor_type;location;lat;lon;timestamp;P1;durP1;ratioP1;P2;durP2;ratioP2
55210;SDS011;41082;52.822;6.666;2023-09-30T00:00:58;9.50;;;2.45;;
55210;SDS011;41082;52.822;6.666;2023-09-30T00:03:23;14.05;;;3.42;;
55210;SDS011;41082;52.822;6.666;2023-09-30T00:05:49;10.90;;;2.63;;
55210;SDS011;41082;52.822;6.666;2023-09-30T00:08:15;13.05;;;2.40;;
55210;SDS011;41082;52.822;6.666;2023-09-30T00:10:41;11.10;;;3.00;;
55210;SDS011;41082;52.822;6.666;2023-09-30T00:13:06;9.13;;;3.05;;
55210;SDS011;41082;52.822;6.666;2023-09-30T00:15:35;15.35;;;3.10;;
55210;SDS011;41082;52.822;6.666;2023-09-30T00:18:00;14.38;;;3.20;;
55210;SDS011;41082;52.822;6.666;2023-09-30T00:20:27;12.88;;;2.70;;
55210;SDS011;41082;52.822;6.666;2023-09-30T00:22:53;14.70;;;3.33;;
55210;SDS011;41082;52.822;6.666;2023-09-30T00:25:19;13.00;;;3.50;;
55210;SDS011;41082;52.822;6.666;2023-09-30T00:27:46;13.18;;;3.42;;
55210;SDS011;41082;52.822;6.666;2023-09-30T00:30:12;12.70;;;3.33;;
55210;SDS011;41082;52.822;6.666;2023-09-30T00:32:38;15.70;;;4.13;;
55210;SDS011;41082;52.822;6.666;2023-09-30T00:35:04;15.27;;;3.67;;
55210;SDS011;41082;52.822;6.666;2023-09-30T00:37:38;13.90;;;3.10;;
55210;SDS011;41082;52.822;6.666;2023-09-30T00:40:05;13.57;;;3.50;;
55210;SDS011;41082;52.822;6.666;2023-09-30T00:42:31;11.73;;;3.55;;
55210;SDS011;41082;52.822;6.666;2023-09-30T00:44:57;16.95;;;3.83;;
55210;SDS011;41082;52.822;6.666;2023-09-30T00:47:22;17.08;;;4.28;;
55210;SDS011;41082;52.822;6.666;2023-09-30T00:49:49;13.75;;;3.58;;
55210;SDS011;41082;52.822;6.666;2023-09-30T00:52:16;9.68;;;3.05;;
55210;SDS011;41082;52.822;6.666;2023-09-30T00:54:43;11.63;;;3.45;;
55210;SDS011;41082;52.822;6.666;2023-09-30T00:57:10;14.70;;;3.92;;
55210;SDS011;41082;52.822;6.666;2023-09-30T00:59:36;14.52;;;3.33;;
55210;SDS011;41082;52.822;6.666;2023-09-30T01:02:02;11.90;;;3.45;;
55210;SDS011;41082;52.822;6.666;2023-09-30T01:04:30;19.80;;;3.97;;
55210;SDS011;41082;52.822;6.666;2023-09-30T01:06:56;11.90;;;3.20;;
55210;SDS011;41082;52.822;6.666;2023-09-30T01:09:22;12.02;;;3.75;;
55210;SDS011;41082;52.822;6.666;2023-09-30T01:11:49;12.02;;;3.22;;
55210;SDS011;41082;52.822;6.666;2023-09-30T01:14:30;13.63;;;3.35;;
55210;SDS011;41082;52.822;6.666;2023-09-30T01:16:57;13.88;;;3.60;;
55210;SDS011;41082;52.822;6.666;2023-09-30T01:19:23;14.63;;;3.55;;
55210;SDS011;41082;52.822;6.666;2023-09-30T01:21:59;13.93;;;3.42;;
55210;SDS011;41082;52.822;6.666;2023-09-30T01:24:31;13.93;;;3.05;;
55210;SDS011;41082;52.822;6.666;2023-09-30T01:27:06;12.00;;;2.95;;
55210;SDS011;41082;52.822;6.666;2023-09-30T01:29:32;13.30;;;3.35;;
55210;SDS011;41082;52.822;6.666;2023-09-30T01:31:58;13.32;;;3.53;;
55210;SDS011;41082;52.822;6.666;2023-09-30T01:34:23;13.60;;;4.22;;
55210;SDS011;41082;52.822;6.666;2023-09-30T01:36:49;13.18;;;3.80;;
55210;SDS011;41082;52.822;6.666;2023-09-30T01:39:14;15.15;;;3.13;;
55210;SDS011;41082;52.822;6.666;2023-09-30T01:41:40;11.57;;;3.10;;
55210;SDS011;41082;52.822;6.666;2023-09-30T01:44:07;15.93;;;3.15;;
55210;SDS011;41082;52.822;6.666;2023-09-30T01:46:34;13.93;;;3.70;;
55210;SDS011;41082;52.822;6.666;2023-09-30T01:49:01;12.90;;;3.33;;
55210;SDS011;41082;52.822;6.666;2023-09-30T01:51:28;17.88;;;3.15;;
55210;SDS011;41082;52.822;6.666;2023-09-30T01:53:54;14.30;;;3.03;;
55210;SDS011;41082;52.822;6.666;2023-09-30T01:56:20;7.70;;;2.47;;
55210;SDS011;41082;52.822;6.666;2023-09-30T01:58:46;10.65;;;3.13;;
55210;SDS011;41082;52.822;6.666;2023-09-30T02:01:12;14.45;;;3.97;;
55210;SDS011;41082;52.822;6.666;2023-09-30T02:03:37;9.30;;;3.65;;
55210;SDS011;41082;52.822;6.666;2023-09-30T02:06:03;14.77;;;3.40;;
55210;SDS011;41082;52.822;6.666;2023-09-30T02:08:29;13.50;;;3.50;;
55210;SDS011;41082;52.822;6.666;2023-09-30T02:10:55;9.52;;;2.72;;
55210;SDS011;41082;52.822;6.666;2023-09-30T02:13:21;12.45;;;3.50;;
55210;SDS011;41082;52.822;6.666;2023-09-30T02:15:47;12.20;;;3.13;;
55210;SDS011;41082;52.822;6.666;2023-09-30T02:18:12;14.07;;;3.45;;
55210;SDS011;41082;52.822;6.666;2023-09-30T02:20:39;15.98;;;3.38;;
55210;SDS011;41082;52.822;6.666;2023-09-30T02:23:05;13.13;;;3.80;;
55210;SDS011;41082;52.822;6.666;2023-09-30T02:25:31;10.45;;;3.15;;
55210;SDS011;41082;52.822;6.666;2023-09-30T02:27:58;12.52;;;3.63;;
55210;SDS011;41082;52.822;6.666;2023-09-30T02:30:24;13.32;;;3.63;;
55210;SDS011;41082;52.822;6.666;2023-09-30T02:32:49;10.65;;;3.70;;
55210;SDS011;41082;52.822;6.666;2023-09-30T02:35:15;10.88;;;4.07;;
55210;SDS011;41082;52.822;6.666;2023-09-30T02:37:41;14.52;;;4.00;;
55210;SDS011;41082;52.822;6.666;2023-09-30T02:40:07;13.93;;;3.80;;
55210;SDS011;41082;52.822;6.666;2023-09-30T02:42:36;13.02;;;3.78;;
55210;SDS011;41082;52.822;6.666;2023-09-30T02:45:03;14.10;;;4.03;;
55210;SDS011;41082;52.822;6.666;2023-09-30T02:47:35;12.65;;;3.67;;
55210;SDS011;41082;52.822;6.666;2023-09-30T02:50:02;12.27;;;4.07;;
55210;SDS011;41082;52.822;6.666;2023-09-30T02:52:29;13.35;;;3.47;;
55210;SDS011;41082;52.822;6.666;2023-09-30T02:54:56;15.55;;;3.47;;
55210;SDS011;41082;52.822;6.666;2023-09-30T02:57:23;13.93;;;3.83;;
55210;SDS011;41082;52.822;6.666;2023-09-30T02:59:49;10.18;;;3.80;;
55210;SDS011;41082;52.822;6.666;2023-09-30T03:02:17;15.85;;;4.90;;
55210;SDS011;41082;52.822;6.666;2023-09-30T03:04:43;17.60;;;4.35;;
55210;SDS011;41082;52.822;6.666;2023-09-30T03:07:09;10.23;;;3.65;;
55210;SDS011;41082;52.822;6.666;2023-09-30T03:09:35;14.48;;;4.00;;
55210;SDS011;41082;52.822;6.666;2023-09-30T03:12:01;14.27;;;3.95;;
55210;SDS011;41082;52.822;6.666;2023-09-30T03:14:29;10.10;;;3.60;;
55210;SDS011;41082;52.822;6.666;2023-09-30T03:16:56;13.75;;;4.07;;
55210;SDS011;41082;52.822;6.666;2023-09-30T03:19:22;12.88;;;3.35;;
55210;SDS011;41082;52.822;6.666;2023-09-30T03:21:48;12.23;;;3.58;;
55210;SDS011;41082;52.822;6.666;2023-09-30T03:24:13;14.77;;;3.75;;
55210;SDS011;41082;52.822;6.666;2023-09-30T03:26:39;13.38;;;3.80;;
55210;SDS011;41082;52.822;6.666;2023-09-30T03:29:06;12.40;;;4.00;;
55210;SDS011;41082;52.822;6.666;2023-09-30T03:31:34;14.60;;;4.38;;
55210;SDS011;41082;52.822;6.666;2023-09-30T03:34:00;11.43;;;3.90;;
55210;SDS011;41082;52.822;6.666;2023-09-30T03:36:26;13.15;;;3.42;;
55210;SDS011;41082;52.822;6.666;2023-09-30T03:38:55;13.80;;;3.92;;
55210;SDS011;41082;52.822;6.666;2023-09-30T03:41:21;11.98;;;3.85;;
55210;SDS011;41082;52.822;6.666;2023-09-30T03:43:47;13.80;;;3.88;;
55210;SDS011;41082;52.822;6.666;2023-09-30T03:46:14;11.15;;;4.07;;
55210;SDS011;41082;52.822;6.666;2023-09-30T03:48:41;9.55;;;4.20;;
55210;SDS011;41082;52.822;6.666;2023-09-30T03:53:38;15.25;;;4.88;;
55210;SDS011;41082;52.822;6.666;2023-09-30T03:56:05;12.38;;;4.10;;
55210;SDS011;41082;52.822;6.666;2023-09-30T03:58:31;9.68;;;3.63;;
55210;SDS011;41082;52.822;6.666;2023-09-30T04:00:57;14.25;;;4.15;;
55210;SDS011;41082;52.822;6.666;2023-09-30T04:03:25;12.68;;;4.47;;
55210;SDS011;41082;52.822;6.666;2023-09-30T04:05:52;12.90;;;4.47;;
55210;SDS011;41082;52.822;6.666;2023-09-30T04:08:18;17.90;;;4.80;;
55210;SDS011;41082;52.822;6.666;2023-09-30T04:10:44;16.50;;;4.38;;
55210;SDS011;41082;52.822;6.666;2023-09-30T04:13:09;13.57;;;4.93;;
55210;SDS011;41082;52.822;6.666;2023-09-30T04:15:36;13.75;;;4.18;;
55210;SDS011;41082;52.822;6.666;2023-09-30T04:18:02;13.18;;;4.22;;
55210;SDS011;41082;52.822;6.666;2023-09-30T04:20:30;9.93;;;4.57;;
55210;SDS011;41082;52.822;6.666;2023-09-30T04:22:56;9.65;;;4.10;;
55210;SDS011;41082;52.822;6.666;2023-09-30T04:25:22;14.52;;;3.90;;
55210;SDS011;41082;52.822;6.666;2023-09-30T04:27:52;12.13;;;4.47;;
55210;SDS011;41082;52.822;6.666;2023-09-30T04:30:17;13.10;;;4.25;;
55210;SDS011;41082;52.822;6.666;2023-09-30T04:32:43;14.43;;;5.10;;
55210;SDS011;41082;52.822;6.666;2023-09-30T04:35:11;15.15;;;4.50;;
55210;SDS011;41082;52.822;6.666;2023-09-30T04:37:37;11.60;;;4.38;;
55210;SDS011;41082;52.822;6.666;2023-09-30T04:40:03;15.20;;;4.97;;
55210;SDS011;41082;52.822;6.666;2023-09-30T04:42:34;16.00;;;4.55;;
55210;SDS011;41082;52.822;6.666;2023-09-30T04:45:02;13.57;;;4.65;;
55210;SDS011;41082;52.822;6.666;2023-09-30T04:47:29;12.77;;;4.93;;
55210;SDS011;41082;52.822;6.666;2023-09-30T04:49:55;15.57;;;4.57;;
55210;SDS011;41082;52.822;6.666;2023-09-30T04:52:23;15.52;;;4.88;;
55210;SDS011;41082;52.822;6.666;2023-09-30T04:54:52;14.65;;;4.18;;
55210;SDS011;41082;52.822;6.666;2023-09-30T04:57:18;11.15;;;4.78;;
55210;SDS011;41082;52.822;6.666;2023-09-30T04:59:44;16.10;;;5.00;;
55210;SDS011;41082;52.822;6.666;2023-09-30T05:02:11;14.35;;;4.70;;
55210;SDS011;41082;52.822;6.666;2023-09-30T05:04:40;13.57;;;4.65;;
55210;SDS011;41082;52.822;6.666;2023-09-30T05:07:06;13.55;;;4.85;;
55210;SDS011;41082;52.822;6.666;2023-09-30T05:09:32;10.85;;;4.85;;
55210;SDS011;41082;52.822;6.666;2023-09-30T05:11:58;13.48;;;4.95;;
55210;SDS011;41082;52.822;6.666;2023-09-30T05:14:23;9.52;;;4.68;;
55210;SDS011;41082;52.822;6.666;2023-09-30T05:16:49;15.07;;;5.15;;
55210;SDS011;41082;52.822;6.666;2023-09-30T05:19:15;13.48;;;4.85;;
55210;SDS011;41082;52.822;6.666;2023-09-30T05:21:40;11.82;;;4.70;;
55210;SDS011;41082;52.822;6.666;2023-09-30T05:24:06;13.18;;;4.20;;
55210;SDS011;41082;52.822;6.666;2023-09-30T05:26:32;12.20;;;4.50;;
55210;SDS011;41082;52.822;6.666;2023-09-30T05:28:58;16.83;;;5.28;;
55210;SDS011;41082;52.822;6.666;2023-09-30T05:31:24;16.70;;;5.40;;
55210;SDS011;41082;52.822;6.666;2023-09-30T05:33:50;12.10;;;5.43;;
55210;SDS011;41082;52.822;6.666;2023-09-30T05:36:15;8.88;;;4.60;;
55210;SDS011;41082;52.822;6.666;2023-09-30T05:38:41;10.75;;;5.05;;
55210;SDS011;41082;52.822;6.666;2023-09-30T05:41:07;11.38;;;5.47;;
55210;SDS011;41082;52.822;6.666;2023-09-30T05:43:33;12.43;;;4.97;;
55210;SDS011;41082;52.822;6.666;2023-09-30T05:45:59;14.68;;;5.15;;
55210;SDS011;41082;52.822;6.666;2023-09-30T05:48:24;11.25;;;5.72;;
55210;SDS011;41082;52.822;6.666;2023-09-30T05:50:50;13.05;;;5.43;;
55210;SDS011;41082;52.822;6.666;2023-09-30T05:53:16;12.50;;;5.88;;
55210;SDS011;41082;52.822;6.666;2023-09-30T05:55:41;11.23;;;4.93;;
55210;SDS011;41082;52.822;6.666;2023-09-30T05:58:12;10.30;;;5.47;;
55210;SDS011;41082;52.822;6.666;2023-09-30T06:00:39;10.75;;;5.32;;
55210;SDS011;41082;52.822;6.666;2023-09-30T06:03:07;11.05;;;5.10;;
55210;SDS011;41082;52.822;6.666;2023-09-30T06:05:32;13.43;;;5.00;;
55210;SDS011;41082;52.822;6.666;2023-09-30T06:08:01;11.85;;;5.30;;
55210;SDS011;41082;52.822;6.666;2023-09-30T06:10:29;11.48;;;5.05;;
55210;SDS011;41082;52.822;6.666;2023-09-30T06:12:54;11.13;;;4.97;;
55210;SDS011;41082;52.822;6.666;2023-09-30T06:15:22;13.95;;;6.50;;
55210;SDS011;41082;52.822;6.666;2023-09-30T06:17:54;12.20;;;5.20;;
55210;SDS011;41082;52.822;6.666;2023-09-30T06:20:21;13.07;;;5.35;;
55210;SDS011;41082;52.822;6.666;2023-09-30T06:22:47;9.10;;;4.88;;
55210;SDS011;41082;52.822;6.666;2023-09-30T06:25:15;9.48;;;4.80;;
55210;SDS011;41082;52.822;6.666;2023-09-30T06:27:44;8.90;;;5.10;;
55210;SDS011;41082;52.822;6.666;2023-09-30T06:30:10;12.70;;;5.30;;
55210;SDS011;41082;52.822;6.666;2023-09-30T06:32:37;15.40;;;5.50;;
55210;SDS011;41082;52.822;6.666;2023-09-30T06:35:03;10.88;;;5.07;;
55210;SDS011;41082;52.822;6.666;2023-09-30T06:37:29;11.38;;;6.00;;
55210;SDS011;41082;52.822;6.666;2023-09-30T06:39:55;12.02;;;5.80;;
55210;SDS011;41082;52.822;6.666;2023-09-30T06:42:21;14.48;;;5.68;;
55210;SDS011;41082;52.822;6.666;2023-09-30T06:44:47;16.67;;;5.75;;
55210;SDS011;41082;52.822;6.666;2023-09-30T06:47:16;12.95;;;6.50;;
55210;SDS011;41082;52.822;6.666;2023-09-30T06:49:41;13.70;;;5.97;;
55210;SDS011;41082;52.822;6.666;2023-09-30T06:52:07;14.88;;;6.70;;
55210;SDS011;41082;52.822;6.666;2023-09-30T06:54:32;10.85;;;5.88;;
55210;SDS011;41082;52.822;6.666;2023-09-30T06:56:58;14.40;;;5.95;;
55210;SDS011;41082;52.822;6.666;2023-09-30T06:59:24;14.23;;;6.38;;
55210;SDS011;41082;52.822;6.666;2023-09-30T07:01:50;10.20;;;5.95;;
55210;SDS011;41082;52.822;6.666;2023-09-30T07:04:16;17.58;;;8.20;;
55210;SDS011;41082;52.822;6.666;2023-09-30T07:06:42;14.25;;;6.82;;
55210;SDS011;41082;52.822;6.666;2023-09-30T07:09:07;12.60;;;6.28;;
55210;SDS011;41082;52.822;6.666;2023-09-30T07:11:35;15.57;;;7.13;;
55210;SDS011;41082;52.822;6.666;2023-09-30T07:14:01;13.88;;;7.13;;
55210;SDS011;41082;52.822;6.666;2023-09-30T07:16:27;12.77;;;6.00;;
55210;SDS011;41082;52.822;6.666;2023-09-30T07:18:52;13.43;;;6.93;;
55210;SDS011;41082;52.822;6.666;2023-09-30T07:21:19;15.80;;;6.85;;
55210;SDS011;41082;52.822;6.666;2023-09-30T07:23:44;11.25;;;6.88;;
55210;SDS011;41082;52.822;6.666;2023-09-30T07:26:10;13.20;;;7.60;;
55210;SDS011;41082;52.822;6.666;2023-09-30T07:28:35;11.68;;;7.20;;
55210;SDS011;41082;52.822;6.666;2023-09-30T07:31:02;16.20;;;7.57;;
55210;SDS011;41082;52.822;6.666;2023-09-30T07:33:28;15.70;;;8.10;;
55210;SDS011;41082;52.822;6.666;2023-09-30T07:35:54;12.82;;;6.85;;
55210;SDS011;41082;52.822;6.666;2023-09-30T07:38:21;10.10;;;6.97;;
55210;SDS011;41082;52.822;6.666;2023-09-30T07:40:47;18.25;;;7.70;;
55210;SDS011;41082;52.822;6.666;2023-09-30T07:43:13;13.23;;;6.28;;
55210;SDS011;41082;52.822;6.666;2023-09-30T07:45:39;14.80;;;7.30;;
55210;SDS011;41082;52.822;6.666;2023-09-30T07:48:06;15.40;;;7.78;;
55210;SDS011;41082;52.822;6.666;2023-09-30T07:50:34;14.52;;;7.95;;
55210;SDS011;41082;52.822;6.666;2023-09-30T07:53:04;14.07;;;7.05;;
55210;SDS011;41082;52.822;6.666;2023-09-30T07:55:30;14.40;;;7.30;;
55210;SDS011;41082;52.822;6.666;2023-09-30T07:57:56;14.00;;;7.07;;
55210;SDS011;41082;52.822;6.666;2023-09-30T08:00:22;15.90;;;7.43;;
55210;SDS011;41082;52.822;6.666;2023-09-30T08:02:48;12.40;;;7.25;;
55210;SDS011;41082;52.822;6.666;2023-09-30T08:05:15;13.50;;;7.40;;
55210;SDS011;41082;52.822;6.666;2023-09-30T08:07:40;11.30;;;7.32;;
55210;SDS011;41082;52.822;6.666;2023-09-30T08:10:06;16.83;;;7.68;;
55210;SDS011;41082;52.822;6.666;2023-09-30T08:15:03;13.63;;;7.78;;
55210;SDS011;41082;52.822;6.666;2023-09-30T08:17:30;13.73;;;8.20;;
55210;SDS011;41082;52.822;6.666;2023-09-30T08:19:57;15.35;;;8.82;;
55210;SDS011;41082;52.822;6.666;2023-09-30T08:22:22;14.15;;;7.57;;
55210;SDS011;41082;52.822;6.666;2023-09-30T08:24:52;18.52;;;8.60;;
55210;SDS011;41082;52.822;6.666;2023-09-30T08:27:18;16.27;;;7.97;;
55210;SDS011;41082;52.822;6.666;2023-09-30T08:29:44;18.20;;;9.35;;
55210;SDS011;41082;52.822;6.666;2023-09-30T08:32:10;19.58;;;8.52;;
55210;SDS011;41082;52.822;6.666;2023-09-30T08:34:35;16.80;;;8.05;;
55210;SDS011;41082;52.822;6.666;2023-09-30T08:37:01;19.38;;;9.07;;
55210;SDS011;41082;52.822;6.666;2023-09-30T08:39:27;17.65;;;8.85;;
55210;SDS011;41082;52.822;6.666;2023-09-30T08:41:53;18.65;;;8.40;;
55210;SDS011;41082;52.822;6.666;2023-09-30T08:44:21;15.68;;;9.07;;
55210;SDS011;41082;52.822;6.666;2023-09-30T08:46:46;17.27;;;9.75;;
55210;SDS011;41082;52.822;6.666;2023-09-30T08:49:13;17.23;;;8.35;;
55210;SDS011;41082;52.822;6.666;2023-09-30T08:51:40;15.75;;;8.30;;
55210;SDS011;41082;52.822;6.666;2023-09-30T08:54:05;17.88;;;9.15;;
55210;SDS011;41082;52.822;6.666;2023-09-30T08:56:32;12.52;;;7.65;;
55210;SDS011;41082;52.822;6.666;2023-09-30T08:58:58;11.98;;;7.85;;
55210;SDS011;41082;52.822;6.666;2023-09-30T09:01:29;13.23;;;7.97;;
55210;SDS011;41082;52.822;6.666;2023-09-30T09:03:56;20.13;;;8.23;;
55210;SDS011;41082;52.822;6.666;2023-09-30T09:06:23;12.05;;;7.90;;
55210;SDS011;41082;52.822;6.666;2023-09-30T09:08:49;16.05;;;8.30;;
55210;SDS011;41082;52.822;6.666;2023-09-30T09:11:15;14.82;;;8.07;;
55210;SDS011;41082;52.822;6.666;2023-09-30T09:13:49;18.90;;;9.10;;
55210;SDS011;41082;52.822;6.666;2023-09-30T09:16:16;18.17;;;8.70;;
55210;SDS011;41082;52.822;6.666;2023-09-30T09:18:43;15.77;;;7.85;;
55210;SDS011;41082;52.822;6.666;2023-09-30T09:21:10;16.10;;;8.57;;
55210;SDS011;41082;52.822;6.666;2023-09-30T09:23:41;18.08;;;10.45;;
55210;SDS011;41082;52.822;6.666;2023-09-30T09:28:35;18.33;;;7.63;;
55210;SDS011;41082;52.822;6.666;2023-09-30T09:31:04;19.63;;;8.07;;
55210;SDS011;41082;52.822;6.666;2023-09-30T09:33:45;16.35;;;8.02;;
55210;SDS011;41082;52.822;6.666;2023-09-30T09:36:10;14.73;;;8.75;;
55210;SDS011;41082;52.822;6.666;2023-09-30T09:38:48;13.80;;;7.13;;
55210;SDS011;41082;52.822;6.666;2023-09-30T09:41:15;13.52;;;7.22;;
55210;SDS011;41082;52.822;6.666;2023-09-30T09:43:41;16.83;;;8.23;;
55210;SDS011;41082;52.822;6.666;2023-09-30T09:46:08;15.00;;;7.35;;
55210;SDS011;41082;52.822;6.666;2023-09-30T09:48:35;16.30;;;8.10;;
55210;SDS011;41082;52.822;6.666;2023-09-30T09:51:02;14.23;;;7.40;;
55210;SDS011;41082;52.822;6.666;2023-09-30T09:53:29;17.65;;;6.53;;
55210;SDS011;41082;52.822;6.666;2023-09-30T09:55:56;14.95;;;5.35;;
55210;SDS011;41082;52.822;6.666;2023-09-30T09:58:24;12.43;;;6.00;;
55210;SDS011;41082;52.822;6.666;2023-09-30T10:00:52;12.98;;;5.78;;
55210;SDS011;41082;52.822;6.666;2023-09-30T10:03:18;12.52;;;5.45;;
55210;SDS011;41082;52.822;6.666;2023-09-30T10:05:44;16.92;;;5.43;;
55210;SDS011;41082;52.822;6.666;2023-09-30T10:08:14;13.65;;;5.05;;
55210;SDS011;41082;52.822;6.666;2023-09-30T10:10:42;14.63;;;5.45;;
55210;SDS011;41082;52.822;6.666;2023-09-30T10:13:09;13.15;;;5.50;;
55210;SDS011;41082;52.822;6.666;2023-09-30T10:15:54;14.88;;;5.28;;
55210;SDS011;41082;52.822;6.666;2023-09-30T10:18:20;11.32;;;4.47;;
55210;SDS011;41082;52.822;6.666;2023-09-30T10:20:45;9.38;;;4.53;;
55210;SDS011;41082;52.822;6.666;2023-09-30T10:23:22;12.02;;;4.80;;
55210;SDS011;41082;52.822;6.666;2023-09-30T10:25:51;16.95;;;5.35;;
55210;SDS011;41082;52.822;6.666;2023-09-30T10:28:39;12.63;;;4.63;;
55210;SDS011;41082;52.822;6.666;2023-09-30T10:31:16;10.38;;;3.65;;
55210;SDS011;41082;52.822;6.666;2023-09-30T10:36:27;10.50;;;3.72;;
55210;SDS011;41082;52.822;6.666;2023-09-30T10:38:54;7.55;;;2.90;;
55210;SDS011;41082;52.822;6.666;2023-09-30T10:42:05;9.35;;;2.83;;
55210;SDS011;41082;52.822;6.666;2023-09-30T10:46:55;7.60;;;2.58;;
55210;SDS011;41082;52.822;6.666;2023-09-30T10:51:51;12.52;;;2.90;;
55210;SDS011;41082;52.822;6.666;2023-09-30T10:54:23;10.07;;;2.95;;
55210;SDS011;41082;52.822;6.666;2023-09-30T10:56:49;11.10;;;2.88;;
55210;SDS011;41082;52.822;6.666;2023-09-30T10:59:21;9.57;;;2.53;;
55210;SDS011;41082;52.822;6.666;2023-09-30T11:01:48;12.98;;;3.10;;
55210;SDS011;41082;52.822;6.666;2023-09-30T11:04:15;9.85;;;2.45;;
55210;SDS011;41082;52.822;6.666;2023-09-30T11:06:41;12.05;;;1.73;;
55210;SDS011;41082;52.822;6.666;2023-09-30T11:09:07;7.70;;;1.25;;
55210;SDS011;41082;52.822;6.666;2023-09-30T11:11:40;7.78;;;2.08;;
55210;SDS011;41082;52.822;6.666;2023-09-30T11:16:54;10.43;;;1.55;;
55210;SDS011;41082;52.822;6.666;2023-09-30T11:19:21;9.05;;;1.27;;
55210;SDS011;41082;52.822;6.666;2023-09-30T11:21:51;9.63;;;1.67;;
55210;SDS011;41082;52.822;6.666;2023-09-30T11:24:18;5.78;;;0.80;;
55210;SDS011;41082;52.822;6.666;2023-09-30T11:26:44;4.18;;;0.80;;
55210;SDS011;41082;52.822;6.666;2023-09-30T11:29:15;5.18;;;0.80;;
55210;SDS011;41082;52.822;6.666;2023-09-30T11:31:47;6.90;;;1.00;;
55210;SDS011;41082;52.822;6.666;2023-09-30T11:34:16;6.75;;;1.02;;
55210;SDS011;41082;52.822;6.666;2023-09-30T11:36:49;12.55;;;1.40;;
55210;SDS011;41082;52.822;6.666;2023-09-30T11:41:49;4.55;;;0.90;;
55210;SDS011;41082;52.822;6.666;2023-09-30T11:44:15;7.38;;;1.30;;
55210;SDS011;41082;52.822;6.666;2023-09-30T11:46:49;8.50;;;1.40;;
55210;SDS011;41082;52.822;6.666;2023-09-30T11:49:30;4.95;;;0.73;;
55210;SDS011;41082;52.822;6.666;2023-09-30T11:52:00;7.65;;;1.20;;
55210;SDS011;41082;52.822;6.666;2023-09-30T11:54:36;5.15;;;1.20;;
55210;SDS011;41082;52.822;6.666;2023-09-30T11:57:06;7.47;;;1.15;;
55210;SDS011;41082;52.822;6.666;2023-09-30T11:59:36;7.40;;;1.00;;
55210;SDS011;41082;52.822;6.666;2023-09-30T12:02:03;6.72;;;0.80;;
55210;SDS011;41082;52.822;6.666;2023-09-30T12:04:30;4.97;;;0.80;;
55210;SDS011;41082;52.822;6.666;2023-09-30T12:06:57;5.57;;;0.95;;
55210;SDS011;41082;52.822;6.666;2023-09-30T12:09:24;4.40;;;0.70;;
55210;SDS011;41082;52.822;6.666;2023-09-30T12:11:52;6.30;;;1.23;;
55210;SDS011;41082;52.822;6.666;2023-09-30T12:14:19;10.02;;;1.23;;
55210;SDS011;41082;52.822;6.666;2023-09-30T12:16:46;3.88;;;0.73;;
55210;SDS011;41082;52.822;6.666;2023-09-30T12:19:16;4.70;;;0.50;;
55210;SDS011;41082;52.822;6.666;2023-09-30T12:21:43;3.53;;;0.40;;
55210;SDS011;41082;52.822;6.666;2023-09-30T12:24:12;4.22;;;0.98;;
55210;SDS011;41082;52.822;6.666;2023-09-30T12:26:42;4.75;;;0.60;;
55210;SDS011;41082;52.822;6.666;2023-09-30T12:29:17;5.43;;;0.55;;
55210;SDS011;41082;52.822;6.666;2023-09-30T12:31:46;6.03;;;1.10;;
55210;SDS011;41082;52.822;6.666;2023-09-30T12:34:16;6.97;;;1.27;;
55210;SDS011;41082;52.822;6.666;2023-09-30T12:36:42;9.05;;;0.73;;
55210;SDS011;41082;52.822;6.666;2023-09-30T12:39:08;4.97;;;0.90;;
55210;SDS011;41082;52.822;6.666;2023-09-30T12:41:38;5.35;;;0.60;;
55210;SDS011;41082;52.822;6.666;2023-09-30T12:44:06;2.55;;;0.40;;
55210;SDS011;41082;52.822;6.666;2023-09-30T12:46:33;7.63;;;0.60;;
55210;SDS011;41082;52.822;6.666;2023-09-30T12:49:00;5.57;;;1.30;;
55210;SDS011;41082;52.822;6.666;2023-09-30T12:51:27;7.78;;;0.90;;
55210;SDS011;41082;52.822;6.666;2023-09-30T12:53:52;5.88;;;0.70;;
55210;SDS011;41082;52.822;6.666;2023-09-30T12:56:18;5.57;;;0.85;;
55210;SDS011;41082;52.822;6.666;2023-09-30T12:58:44;6.25;;;0.80;;
55210;SDS011;41082;52.822;6.666;2023-09-30T13:01:09;9.07;;;1.40;;
55210;SDS011;41082;52.822;6.666;2023-09-30T13:03:35;6.25;;;0.80;;
55210;SDS011;41082;52.822;6.666;2023-09-30T13:06:01;5.13;;;0.70;;
55210;SDS011;41082;52.822;6.666;2023-09-30T13:08:27;4.90;;;0.43;;
55210;SDS011;41082;52.822;6.666;2023-09-30T13:10:58;5.97;;;1.55;;
55210;SDS011;41082;52.822;6.666;2023-09-30T13:13:31;4.15;;;0.68;;
55210;SDS011;41082;52.822;6.666;2023-09-30T13:15:58;2.65;;;0.50;;
55210;SDS011;41082;52.822;6.666;2023-09-30T13:18:30;4.70;;;0.60;;
55210;SDS011;41082;52.822;6.666;2023-09-30T13:20:56;6.00;;;0.73;;
55210;SDS011;41082;52.822;6.666;2023-09-30T13:23:22;7.45;;;0.77;;
55210;SDS011;41082;52.822;6.666;2023-09-30T13:25:47;6.60;;;0.63;;
55210;SDS011;41082;52.822;6.666;2023-09-30T13:28:13;4.63;;;0.77;;
55210;SDS011;41082;52.822;6.666;2023-09-30T13:30:39;5.80;;;0.88;;
55210;SDS011;41082;52.822;6.666;2023-09-30T13:33:04;5.10;;;1.08;;
55210;SDS011;41082;52.822;6.666;2023-09-30T13:35:30;5.35;;;0.50;;
55210;SDS011;41082;52.822;6.666;2023-09-30T13:37:56;7.57;;;0.60;;
55210;SDS011;41082;52.822;6.666;2023-09-30T13:40:22;3.50;;;0.60;;
55210;SDS011;41082;52.822;6.666;2023-09-30T13:42:48;4.18;;;0.60;;
55210;SDS011;41082;52.822;6.666;2023-09-30T13:45:14;7.63;;;0.82;;
55210;SDS011;41082;52.822;6.666;2023-09-30T13:47:42;5.35;;;0.70;;
55210;SDS011;41082;52.822;6.666;2023-09-30T13:50:08;6.30;;;0.90;;
55210;SDS011;41082;52.822;6.666;2023-09-30T13:52:34;2.92;;;0.55;;
55210;SDS011;41082;52.822;6.666;2023-09-30T13:55:00;2.85;;;0.50;;
55210;SDS011;41082;52.822;6.666;2023-09-30T13:57:26;8.82;;;0.70;;
55210;SDS011;41082;52.822;6.666;2023-09-30T13:59:51;8.05;;;0.85;;
55210;SDS011;41082;52.822;6.666;2023-09-30T14:02:17;6.57;;;0.70;;
55210;SDS011;41082;52.822;6.666;2023-09-30T14:04:42;6.03;;;0.70;;
55210;SDS011;41082;52.822;6.666;2023-09-30T14:07:09;5.07;;;0.50;;
55210;SDS011;41082;52.822;6.666;2023-09-30T14:09:34;3.97;;;0.73;;
55210;SDS011;41082;52.822;6.666;2023-09-30T14:12:00;6.28;;;1.10;;
55210;SDS011;41082;52.822;6.666;2023-09-30T14:14:26;5.05;;;0.85;;
55210;SDS011;41082;52.822;6.666;2023-09-30T14:16:51;6.03;;;1.20;;
55210;SDS011;41082;52.822;6.666;2023-09-30T14:19:17;5.95;;;0.85;;
55210;SDS011;41082;52.822;6.666;2023-09-30T14:21:43;4.80;;;0.60;;
55210;SDS011;41082;52.822;6.666;2023-09-30T14:24:08;5.30;;;0.70;;
55210;SDS011;41082;52.822;6.666;2023-09-30T14:26:34;5.13;;;0.50;;
55210;SDS011;41082;52.822;6.666;2023-09-30T14:29:01;4.45;;;0.85;;
55210;SDS011;41082;52.822;6.666;2023-09-30T14:31:27;5.13;;;0.70;;
55210;SDS011;41082;52.822;6.666;2023-09-30T14:33:53;3.13;;;0.60;;
55210;SDS011;41082;52.822;6.666;2023-09-30T14:36:19;6.95;;;1.00;;
55210;SDS011;41082;52.822;6.666;2023-09-30T14:38:45;6.60;;;0.70;;
55210;SDS011;41082;52.822;6.666;2023-09-30T14:41:11;6.55;;;0.80;;
55210;SDS011;41082;52.822;6.666;2023-09-30T14:43:38;9.35;;;0.88;;
55210;SDS011;41082;52.822;6.666;2023-09-30T14:46:04;3.15;;;0.57;;
55210;SDS011;41082;52.822;6.666;2023-09-30T14:48:30;3.58;;;0.88;;
55210;SDS011;41082;52.822;6.666;2023-09-30T14:50:55;8.52;;;1.00;;
55210;SDS011;41082;52.822;6.666;2023-09-30T14:53:22;4.65;;;0.85;;
55210;SDS011;41082;52.822;6.666;2023-09-30T14:55:48;4.63;;;0.70;;
55210;SDS011;41082;52.822;6.666;2023-09-30T14:58:13;8.88;;;1.20;;